EDLP/PAD METAR and TAF weather

Enter ICAO airport designator
Station Type Date Time Source
EDLP METAR 2022/06/30 13:50 UTC NOAA

EDLP 301350Z 36005KT 310V090 CAVOK 28/12 Q1010


Station Type Date Time Source
EDLP Decoded METAR 2022/06/30 13:50 UTC NOAA

Paderborn / Lippstadt, Germany (EDLP) 51-37N 008-37E
Jun 30, 2022 - 09:50 AM EDT / 2022.06.30 1350 UTC
Wind: from the N (360 degrees) at 6 MPH (5 KT) (direction variable):0
Visibility: greater than 7 mile(s):0
Temperature: 82 F (28 C)
Dew Point: 53 F (12 C)
Relative Humidity: 37%
Pressure (altimeter): 29.83 in. Hg (1010 hPa)
ob: EDLP 301350Z 36005KT 310V090 CAVOK 28/12 Q1010
cycle: 14

Station Type Date Time Source
EDLP TAF 2022/06/30 12:30 UTC NOAA

TAF EDLP 301100Z 3012/0112 VRB03KT 9999 SCT040 PROB30
TEMPO 3012/3016 17020G35KT 4000 TSRA SCT045CB
BECMG 3019/3022 26007KT PROB30
TEMPO 3020/3024 24020G35KT 3000 +TSRA BKN008CB
BECMG 0100/0102 BKN012
TEMPO 0100/0108 3000 RA BR BKN005
BECMG 0107/0110 SCT015 BKN025

Example: see airport list